Terminal Aerodrome Forecast
Issued by NWS Pendleton, OR

Home | Current Version | Previous Version | Text Only | Print | Product List | Glossary On
Versions: 1 2 3 4 5 6 7 8 9 10 11 12 13
000
FTUS46 KPDT 231100
TAFPDT
TAF
KPDT 231137Z 2312/2412 VRB06KT P6SM BKN100
     FM231800 25014G24KT P6SM SCT050 BKN100
     FM232200 28020G30KT P6SM VCTS BKN050CB BKN100 PROB30 2322/2403
      5SM -TSRA BKN050CB BKN100
     FM240600 25016G23KT P6SM SCT050 SCT100=

USA.gov is the U.S. government's official web portal to all federal, state and local government web resources and services.